sensor_id;sensor_type;location;lat;lon;timestamp;temperature;humidity
46438;DHT22;32137;48.728;9.142;2023-07-28T00:00:09;17.00;99.90
46438;DHT22;32137;48.728;9.142;2023-07-28T00:02:34;17.00;99.90
46438;DHT22;32137;48.728;9.142;2023-07-28T00:05:00;17.00;99.90
46438;DHT22;32137;48.728;9.142;2023-07-28T00:07:25;17.00;99.90
46438;DHT22;32137;48.728;9.142;2023-07-28T00:09:51;16.90;99.90
46438;DHT22;32137;48.728;9.142;2023-07-28T00:12:16;16.80;99.90
46438;DHT22;32137;48.728;9.142;2023-07-28T00:14:42;16.80;99.90
46438;DHT22;32137;48.728;9.142;2023-07-28T00:17:07;16.80;99.90
46438;DHT22;32137;48.728;9.142;2023-07-28T00:19:33;16.80;99.90
46438;DHT22;32137;48.728;9.142;2023-07-28T00:21:58;16.80;99.90
46438;DHT22;32137;48.728;9.142;2023-07-28T00:24:23;16.80;99.90
46438;DHT22;32137;48.728;9.142;2023-07-28T00:26:49;16.70;99.90
46438;DHT22;32137;48.728;9.142;2023-07-28T00:29:14;16.70;99.90
46438;DHT22;32137;48.728;9.142;2023-07-28T00:31:40;16.70;99.90
46438;DHT22;32137;48.728;9.142;2023-07-28T00:34:05;16.70;99.90
46438;DHT22;32137;48.728;9.142;2023-07-28T00:36:31;16.70;99.90
46438;DHT22;32137;48.728;9.142;2023-07-28T00:38:57;16.70;99.90
46438;DHT22;32137;48.728;9.142;2023-07-28T00:41:22;16.70;99.90
46438;DHT22;32137;48.728;9.142;2023-07-28T00:43:48;16.70;99.90
46438;DHT22;32137;48.728;9.142;2023-07-28T00:46:13;16.70;99.90
46438;DHT22;32137;48.728;9.142;2023-07-28T00:48:39;16.70;99.90
46438;DHT22;32137;48.728;9.142;2023-07-28T00:51:05;16.70;99.90
46438;DHT22;32137;48.728;9.142;2023-07-28T00:53:31;16.70;99.90
46438;DHT22;32137;48.728;9.142;2023-07-28T00:55:57;16.70;99.90
46438;DHT22;32137;48.728;9.142;2023-07-28T00:58:22;16.70;99.90
46438;DHT22;32137;48.728;9.142;2023-07-28T01:00:48;16.70;99.90
46438;DHT22;32137;48.728;9.142;2023-07-28T01:03:14;16.70;99.90
46438;DHT22;32137;48.728;9.142;2023-07-28T01:05:44;16.60;99.90
46438;DHT22;32137;48.728;9.142;2023-07-28T01:08:15;16.70;99.90
46438;DHT22;32137;48.728;9.142;2023-07-28T01:10:42;16.70;99.90
46438;DHT22;32137;48.728;9.142;2023-07-28T01:13:08;16.60;99.90
46438;DHT22;32137;48.728;9.142;2023-07-28T01:15:34;16.60;99.90
46438;DHT22;32137;48.728;9.142;2023-07-28T01:17:59;16.60;99.90
46438;DHT22;32137;48.728;9.142;2023-07-28T01:20:25;16.60;99.90
46438;DHT22;32137;48.728;9.142;2023-07-28T01:23:08;16.60;99.90
46438;DHT22;32137;48.728;9.142;2023-07-28T01:25:36;16.60;99.90
46438;DHT22;32137;48.728;9.142;2023-07-28T01:28:04;16.60;99.90
46438;DHT22;32137;48.728;9.142;2023-07-28T01:30:31;16.50;99.90
46438;DHT22;32137;48.728;9.142;2023-07-28T01:32:56;16.60;99.90
46438;DHT22;32137;48.728;9.142;2023-07-28T01:35:22;16.60;99.90
46438;DHT22;32137;48.728;9.142;2023-07-28T01:37:48;16.50;99.90
46438;DHT22;32137;48.728;9.142;2023-07-28T01:40:16;16.50;99.90
46438;DHT22;32137;48.728;9.142;2023-07-28T01:42:42;16.50;99.90
46438;DHT22;32137;48.728;9.142;2023-07-28T01:45:07;16.50;99.90
46438;DHT22;32137;48.728;9.142;2023-07-28T01:47:33;16.50;99.90
46438;DHT22;32137;48.728;9.142;2023-07-28T01:49:58;16.50;99.90
46438;DHT22;32137;48.728;9.142;2023-07-28T01:52:24;16.50;99.90
46438;DHT22;32137;48.728;9.142;2023-07-28T01:54:49;16.50;99.90
46438;DHT22;32137;48.728;9.142;2023-07-28T01:57:16;16.50;99.90
46438;DHT22;32137;48.728;9.142;2023-07-28T01:59:42;16.50;99.90
46438;DHT22;32137;48.728;9.142;2023-07-28T02:02:07;16.50;99.90
46438;DHT22;32137;48.728;9.142;2023-07-28T02:04:33;16.50;99.90
46438;DHT22;32137;48.728;9.142;2023-07-28T02:06:58;16.50;99.90
46438;DHT22;32137;48.728;9.142;2023-07-28T02:09:24;16.50;99.90
46438;DHT22;32137;48.728;9.142;2023-07-28T02:11:49;16.50;99.90
46438;DHT22;32137;48.728;9.142;2023-07-28T02:14:15;16.50;99.90
46438;DHT22;32137;48.728;9.142;2023-07-28T02:16:40;16.50;99.90
46438;DHT22;32137;48.728;9.142;2023-07-28T02:19:06;16.50;99.90
46438;DHT22;32137;48.728;9.142;2023-07-28T02:21:31;16.50;99.90
46438;DHT22;32137;48.728;9.142;2023-07-28T02:23:58;16.50;99.90
46438;DHT22;32137;48.728;9.142;2023-07-28T02:26:23;16.50;99.90
46438;DHT22;32137;48.728;9.142;2023-07-28T02:28:49;16.50;99.90
46438;DHT22;32137;48.728;9.142;2023-07-28T02:31:14;16.50;99.90
46438;DHT22;32137;48.728;9.142;2023-07-28T02:33:40;16.50;99.90
46438;DHT22;32137;48.728;9.142;2023-07-28T02:36:05;16.50;99.90
46438;DHT22;32137;48.728;9.142;2023-07-28T02:38:31;16.50;99.90
46438;DHT22;32137;48.728;9.142;2023-07-28T02:40:56;16.50;99.90
46438;DHT22;32137;48.728;9.142;2023-07-28T02:43:21;16.50;99.90
46438;DHT22;32137;48.728;9.142;2023-07-28T02:45:48;16.50;99.90
46438;DHT22;32137;48.728;9.142;2023-07-28T02:48:13;16.60;99.90
46438;DHT22;32137;48.728;9.142;2023-07-28T02:50:39;16.50;99.90
46438;DHT22;32137;48.728;9.142;2023-07-28T02:53:10;16.60;99.90
46438;DHT22;32137;48.728;9.142;2023-07-28T02:55:40;16.60;99.90
46438;DHT22;32137;48.728;9.142;2023-07-28T02:58:05;16.60;99.90
46438;DHT22;32137;48.728;9.142;2023-07-28T03:00:31;16.60;99.90
46438;DHT22;32137;48.728;9.142;2023-07-28T03:02:56;16.60;99.90
46438;DHT22;32137;48.728;9.142;2023-07-28T03:05:21;16.70;99.90
46438;DHT22;32137;48.728;9.142;2023-07-28T03:07:47;16.70;99.90
46438;DHT22;32137;48.728;9.142;2023-07-28T03:10:13;16.70;99.90
46438;DHT22;32137;48.728;9.142;2023-07-28T03:12:41;16.70;99.90
46438;DHT22;32137;48.728;9.142;2023-07-28T03:15:07;16.80;99.90
46438;DHT22;32137;48.728;9.142;2023-07-28T03:17:32;16.70;99.90
46438;DHT22;32137;48.728;9.142;2023-07-28T03:19:58;16.80;99.90
46438;DHT22;32137;48.728;9.142;2023-07-28T03:22:23;16.80;99.90
46438;DHT22;32137;48.728;9.142;2023-07-28T03:24:49;16.80;99.90
46438;DHT22;32137;48.728;9.142;2023-07-28T03:27:15;16.80;99.90
46438;DHT22;32137;48.728;9.142;2023-07-28T03:29:40;16.90;99.90
46438;DHT22;32137;48.728;9.142;2023-07-28T03:32:05;16.90;99.90
46438;DHT22;32137;48.728;9.142;2023-07-28T03:34:31;16.90;99.90
46438;DHT22;32137;48.728;9.142;2023-07-28T03:36:56;16.90;99.90
46438;DHT22;32137;48.728;9.142;2023-07-28T03:39:22;16.90;99.90
46438;DHT22;32137;48.728;9.142;2023-07-28T03:41:47;16.90;99.90
46438;DHT22;32137;48.728;9.142;2023-07-28T03:44:13;16.90;99.90
46438;DHT22;32137;48.728;9.142;2023-07-28T03:46:38;16.90;99.90
46438;DHT22;32137;48.728;9.142;2023-07-28T03:49:04;16.90;99.90
46438;DHT22;32137;48.728;9.142;2023-07-28T03:51:29;16.90;99.90
46438;DHT22;32137;48.728;9.142;2023-07-28T03:53:55;16.90;99.90
46438;DHT22;32137;48.728;9.142;2023-07-28T03:56:20;17.00;99.90
46438;DHT22;32137;48.728;9.142;2023-07-28T03:58:46;17.00;99.90
46438;DHT22;32137;48.728;9.142;2023-07-28T04:01:11;17.00;99.90
46438;DHT22;32137;48.728;9.142;2023-07-28T04:03:36;17.00;99.90
46438;DHT22;32137;48.728;9.142;2023-07-28T04:06:10;17.00;99.90
46438;DHT22;32137;48.728;9.142;2023-07-28T04:08:36;17.00;99.90
46438;DHT22;32137;48.728;9.142;2023-07-28T04:11:01;17.00;99.90
46438;DHT22;32137;48.728;9.142;2023-07-28T04:13:26;17.00;99.90
46438;DHT22;32137;48.728;9.142;2023-07-28T04:15:52;17.00;99.90
46438;DHT22;32137;48.728;9.142;2023-07-28T04:18:17;16.90;99.90
46438;DHT22;32137;48.728;9.142;2023-07-28T04:20:43;17.00;99.90
46438;DHT22;32137;48.728;9.142;2023-07-28T04:23:08;17.00;99.90
46438;DHT22;32137;48.728;9.142;2023-07-28T04:25:34;17.00;99.90
46438;DHT22;32137;48.728;9.142;2023-07-28T04:27:59;17.00;99.90
46438;DHT22;32137;48.728;9.142;2023-07-28T04:30:25;17.00;99.90
46438;DHT22;32137;48.728;9.142;2023-07-28T04:32:50;17.00;99.90
46438;DHT22;32137;48.728;9.142;2023-07-28T04:35:16;17.00;99.90
46438;DHT22;32137;48.728;9.142;2023-07-28T04:37:41;17.00;99.90
46438;DHT22;32137;48.728;9.142;2023-07-28T04:40:07;17.00;99.90
46438;DHT22;32137;48.728;9.142;2023-07-28T04:42:33;17.00;99.90
46438;DHT22;32137;48.728;9.142;2023-07-28T04:44:59;17.00;99.90
46438;DHT22;32137;48.728;9.142;2023-07-28T04:47:25;17.00;99.90
46438;DHT22;32137;48.728;9.142;2023-07-28T04:49:50;17.00;99.90
46438;DHT22;32137;48.728;9.142;2023-07-28T04:52:15;17.00;99.90
46438;DHT22;32137;48.728;9.142;2023-07-28T04:54:41;17.00;99.90
46438;DHT22;32137;48.728;9.142;2023-07-28T04:57:07;17.00;99.90
46438;DHT22;32137;48.728;9.142;2023-07-28T04:59:32;17.00;99.90
46438;DHT22;32137;48.728;9.142;2023-07-28T05:01:57;17.00;99.90
46438;DHT22;32137;48.728;9.142;2023-07-28T05:04:23;17.00;99.90
46438;DHT22;32137;48.728;9.142;2023-07-28T05:06:48;17.00;99.90
46438;DHT22;32137;48.728;9.142;2023-07-28T05:09:14;17.00;99.90
46438;DHT22;32137;48.728;9.142;2023-07-28T05:11:39;17.00;99.90
46438;DHT22;32137;48.728;9.142;2023-07-28T05:14:05;17.00;99.90
46438;DHT22;32137;48.728;9.142;2023-07-28T05:16:34;17.00;99.90
46438;DHT22;32137;48.728;9.142;2023-07-28T05:18:59;16.90;1.00
46438;DHT22;32137;48.728;9.142;2023-07-28T05:21:25;16.90;1.00
46438;DHT22;32137;48.728;9.142;2023-07-28T05:23:50;16.90;1.00
46438;DHT22;32137;48.728;9.142;2023-07-28T05:26:16;16.90;1.00
46438;DHT22;32137;48.728;9.142;2023-07-28T05:28:41;16.90;1.00
46438;DHT22;32137;48.728;9.142;2023-07-28T05:31:07;16.90;1.00
46438;DHT22;32137;48.728;9.142;2023-07-28T05:33:32;16.90;1.00
46438;DHT22;32137;48.728;9.142;2023-07-28T05:36:01;16.90;1.00
46438;DHT22;32137;48.728;9.142;2023-07-28T05:38:27;16.90;1.00
46438;DHT22;32137;48.728;9.142;2023-07-28T05:40:57;16.90;1.00
46438;DHT22;32137;48.728;9.142;2023-07-28T05:43:22;16.90;1.00
46438;DHT22;32137;48.728;9.142;2023-07-28T05:45:47;16.90;1.00
46438;DHT22;32137;48.728;9.142;2023-07-28T05:48:13;16.90;1.00
46438;DHT22;32137;48.728;9.142;2023-07-28T05:50:38;16.90;1.00
46438;DHT22;32137;48.728;9.142;2023-07-28T05:53:04;17.00;14.70
46438;DHT22;32137;48.728;9.142;2023-07-28T05:55:29;16.90;28.80
46438;DHT22;32137;48.728;9.142;2023-07-28T05:57:55;17.00;67.20
46438;DHT22;32137;48.728;9.142;2023-07-28T06:00:20;17.00;90.00
46438;DHT22;32137;48.728;9.142;2023-07-28T06:02:47;17.00;43.20
46438;DHT22;32137;48.728;9.142;2023-07-28T06:05:12;17.00;11.00
46438;DHT22;32137;48.728;9.142;2023-07-28T06:07:38;17.00;28.60
46438;DHT22;32137;48.728;9.142;2023-07-28T06:10:03;17.00;59.40
46438;DHT22;32137;48.728;9.142;2023-07-28T06:12:29;17.00;91.20
46438;DHT22;32137;48.728;9.142;2023-07-28T06:14:55;17.00;91.90
46438;DHT22;32137;48.728;9.142;2023-07-28T06:17:20;17.00;99.90
46438;DHT22;32137;48.728;9.142;2023-07-28T06:19:46;17.00;99.90
46438;DHT22;32137;48.728;9.142;2023-07-28T06:22:11;17.00;99.90
46438;DHT22;32137;48.728;9.142;2023-07-28T06:24:37;17.00;99.90
46438;DHT22;32137;48.728;9.142;2023-07-28T06:27:02;17.10;99.90
46438;DHT22;32137;48.728;9.142;2023-07-28T06:29:33;17.10;99.90
46438;DHT22;32137;48.728;9.142;2023-07-28T06:31:58;17.10;95.50
46438;DHT22;32137;48.728;9.142;2023-07-28T06:34:24;17.10;53.90
46438;DHT22;32137;48.728;9.142;2023-07-28T06:36:49;17.20;51.10
46438;DHT22;32137;48.728;9.142;2023-07-28T06:39:15;17.20;81.30
46438;DHT22;32137;48.728;9.142;2023-07-28T06:41:40;17.20;55.50
46438;DHT22;32137;48.728;9.142;2023-07-28T06:44:06;17.30;32.70
46438;DHT22;32137;48.728;9.142;2023-07-28T06:46:33;17.40;51.40
46438;DHT22;32137;48.728;9.142;2023-07-28T06:48:59;17.40;10.30
46438;DHT22;32137;48.728;9.142;2023-07-28T06:51:24;17.40;3.60
46438;DHT22;32137;48.728;9.142;2023-07-28T06:53:50;17.40;53.50
46438;DHT22;32137;48.728;9.142;2023-07-28T06:56:16;17.50;53.00
46438;DHT22;32137;48.728;9.142;2023-07-28T06:58:41;17.50;60.10
46438;DHT22;32137;48.728;9.142;2023-07-28T07:01:07;17.50;20.60
46438;DHT22;32137;48.728;9.142;2023-07-28T07:03:36;17.60;10.50
46438;DHT22;32137;48.728;9.142;2023-07-28T07:06:01;17.60;25.40
46438;DHT22;32137;48.728;9.142;2023-07-28T07:08:27;17.70;1.00
46438;DHT22;32137;48.728;9.142;2023-07-28T07:10:53;17.70;1.00
46438;DHT22;32137;48.728;9.142;2023-07-28T07:13:18;17.80;1.00
46438;DHT22;32137;48.728;9.142;2023-07-28T07:15:44;17.80;1.00
46438;DHT22;32137;48.728;9.142;2023-07-28T07:18:10;17.90;1.00
46438;DHT22;32137;48.728;9.142;2023-07-28T07:20:36;17.90;1.00
46438;DHT22;32137;48.728;9.142;2023-07-28T07:23:03;18.00;1.00
46438;DHT22;32137;48.728;9.142;2023-07-28T07:25:29;18.00;1.00
46438;DHT22;32137;48.728;9.142;2023-07-28T07:27:54;18.00;1.00
46438;DHT22;32137;48.728;9.142;2023-07-28T07:30:20;18.10;1.00
46438;DHT22;32137;48.728;9.142;2023-07-28T07:32:46;18.20;1.00
46438;DHT22;32137;48.728;9.142;2023-07-28T07:35:12;18.30;1.00
46438;DHT22;32137;48.728;9.142;2023-07-28T07:37:37;18.30;1.00
46438;DHT22;32137;48.728;9.142;2023-07-28T07:40:04;18.40;99.90
46438;DHT22;32137;48.728;9.142;2023-07-28T07:42:39;18.50;1.00
46438;DHT22;32137;48.728;9.142;2023-07-28T07:45:06;18.50;99.90
46438;DHT22;32137;48.728;9.142;2023-07-28T07:47:32;18.50;99.90
46438;DHT22;32137;48.728;9.142;2023-07-28T07:49:58;18.50;99.90
46438;DHT22;32137;48.728;9.142;2023-07-28T07:52:23;18.50;99.90
46438;DHT22;32137;48.728;9.142;2023-07-28T07:54:49;18.50;99.90
46438;DHT22;32137;48.728;9.142;2023-07-28T07:57:14;18.50;99.90
46438;DHT22;32137;48.728;9.142;2023-07-28T07:59:40;18.50;99.90
46438;DHT22;32137;48.728;9.142;2023-07-28T08:02:05;18.50;99.90
46438;DHT22;32137;48.728;9.142;2023-07-28T08:04:31;18.60;99.90
46438;DHT22;32137;48.728;9.142;2023-07-28T08:06:56;18.60;99.90
46438;DHT22;32137;48.728;9.142;2023-07-28T08:09:22;18.60;99.90
46438;DHT22;32137;48.728;9.142;2023-07-28T08:11:47;18.60;99.90
46438;DHT22;32137;48.728;9.142;2023-07-28T08:14:13;18.60;99.90
46438;DHT22;32137;48.728;9.142;2023-07-28T08:16:39;18.80;99.90
46438;DHT22;32137;48.728;9.142;2023-07-28T08:19:04;18.80;99.90
46438;DHT22;32137;48.728;9.142;2023-07-28T08:21:30;18.90;99.90
46438;DHT22;32137;48.728;9.142;2023-07-28T08:23:56;19.00;99.90
46438;DHT22;32137;48.728;9.142;2023-07-28T08:26:21;19.10;99.90
46438;DHT22;32137;48.728;9.142;2023-07-28T08:28:47;19.20;99.90
46438;DHT22;32137;48.728;9.142;2023-07-28T08:31:12;19.30;99.90
46438;DHT22;32137;48.728;9.142;2023-07-28T08:33:38;19.40;99.90
46438;DHT22;32137;48.728;9.142;2023-07-28T08:36:03;19.50;99.90
46438;DHT22;32137;48.728;9.142;2023-07-28T08:38:29;19.60;97.60
46438;DHT22;32137;48.728;9.142;2023-07-28T08:40:56;19.60;99.90
46438;DHT22;32137;48.728;9.142;2023-07-28T08:43:23;19.70;98.30
46438;DHT22;32137;48.728;9.142;2023-07-28T08:45:49;19.80;65.10
46438;DHT22;32137;48.728;9.142;2023-07-28T08:48:15;19.70;26.70
46438;DHT22;32137;48.728;9.142;2023-07-28T08:50:40;19.70;1.00
46438;DHT22;32137;48.728;9.142;2023-07-28T08:53:06;19.70;1.00
46438;DHT22;32137;48.728;9.142;2023-07-28T08:55:32;19.70;7.60
46438;DHT22;32137;48.728;9.142;2023-07-28T08:58:13;19.70;1.00
46438;DHT22;32137;48.728;9.142;2023-07-28T09:00:40;19.80;15.10
46438;DHT22;32137;48.728;9.142;2023-07-28T09:03:08;19.90;96.10
46438;DHT22;32137;48.728;9.142;2023-07-28T09:05:33;20.00;90.10
46438;DHT22;32137;48.728;9.142;2023-07-28T09:07:59;19.90;18.40
46438;DHT22;32137;48.728;9.142;2023-07-28T09:10:24;19.80;1.00
46438;DHT22;32137;48.728;9.142;2023-07-28T09:12:50;19.80;1.00
46438;DHT22;32137;48.728;9.142;2023-07-28T09:15:16;19.70;1.00
46438;DHT22;32137;48.728;9.142;2023-07-28T09:17:42;19.70;1.00
46438;DHT22;32137;48.728;9.142;2023-07-28T09:20:08;19.70;76.70
46438;DHT22;32137;48.728;9.142;2023-07-28T09:22:37;19.70;91.40
46438;DHT22;32137;48.728;9.142;2023-07-28T09:25:10;19.80;69.60
46438;DHT22;32137;48.728;9.142;2023-07-28T09:27:36;19.90;57.80
46438;DHT22;32137;48.728;9.142;2023-07-28T09:30:03;19.90;51.30
46438;DHT22;32137;48.728;9.142;2023-07-28T09:32:30;20.00;64.80
46438;DHT22;32137;48.728;9.142;2023-07-28T09:35:05;20.10;81.70
46438;DHT22;32137;48.728;9.142;2023-07-28T09:37:30;20.10;99.90
46438;DHT22;32137;48.728;9.142;2023-07-28T09:39:56;20.10;82.90
46438;DHT22;32137;48.728;9.142;2023-07-28T09:42:22;20.20;62.20
46438;DHT22;32137;48.728;9.142;2023-07-28T09:44:48;20.30;44.60
46438;DHT22;32137;48.728;9.142;2023-07-28T09:47:13;20.30;67.00
46438;DHT22;32137;48.728;9.142;2023-07-28T09:49:39;20.40;80.50
46438;DHT22;32137;48.728;9.142;2023-07-28T09:52:09;20.40;87.40
46438;DHT22;32137;48.728;9.142;2023-07-28T09:54:38;20.60;98.00
46438;DHT22;32137;48.728;9.142;2023-07-28T09:57:04;20.70;23.30
46438;DHT22;32137;48.728;9.142;2023-07-28T09:59:35;20.90;1.00
46438;DHT22;32137;48.728;9.142;2023-07-28T10:02:02;21.00;1.00
46438;DHT22;32137;48.728;9.142;2023-07-28T10:04:29;21.00;1.00
46438;DHT22;32137;48.728;9.142;2023-07-28T10:06:54;20.90;1.00
46438;DHT22;32137;48.728;9.142;2023-07-28T10:09:24;20.90;1.00
46438;DHT22;32137;48.728;9.142;2023-07-28T10:11:50;20.70;1.00
46438;DHT22;32137;48.728;9.142;2023-07-28T10:14:28;20.60;1.00
46438;DHT22;32137;48.728;9.142;2023-07-28T10:16:56;20.60;1.00
46438;DHT22;32137;48.728;9.142;2023-07-28T10:19:24;20.60;1.00
46438;DHT22;32137;48.728;9.142;2023-07-28T10:21:49;20.50;1.00
46438;DHT22;32137;48.728;9.142;2023-07-28T10:24:16;20.50;1.00
46438;DHT22;32137;48.728;9.142;2023-07-28T10:26:41;20.50;1.00
46438;DHT22;32137;48.728;9.142;2023-07-28T10:29:08;20.60;99.90
46438;DHT22;32137;48.728;9.142;2023-07-28T10:31:33;20.60;1.00
46438;DHT22;32137;48.728;9.142;2023-07-28T10:33:59;20.70;99.90
46438;DHT22;32137;48.728;9.142;2023-07-28T10:39:00;20.70;99.90
46438;DHT22;32137;48.728;9.142;2023-07-28T10:41:26;20.80;99.90
46438;DHT22;32137;48.728;9.142;2023-07-28T10:43:51;20.90;99.90
46438;DHT22;32137;48.728;9.142;2023-07-28T10:46:17;20.90;99.90
46438;DHT22;32137;48.728;9.142;2023-07-28T10:48:44;21.00;99.90
46438;DHT22;32137;48.728;9.142;2023-07-28T10:51:10;21.20;99.90
46438;DHT22;32137;48.728;9.142;2023-07-28T10:53:37;21.30;99.90
46438;DHT22;32137;48.728;9.142;2023-07-28T10:56:02;21.40;99.90
46438;DHT22;32137;48.728;9.142;2023-07-28T10:58:29;21.60;67.50
46438;DHT22;32137;48.728;9.142;2023-07-28T11:00:54;21.80;99.90
46438;DHT22;32137;48.728;9.142;2023-07-28T11:03:20;22.00;99.90
46438;DHT22;32137;48.728;9.142;2023-07-28T11:05:48;22.10;16.90
46438;DHT22;32137;48.728;9.142;2023-07-28T11:08:13;22.10;6.80
46438;DHT22;32137;48.728;9.142;2023-07-28T11:10:39;22.20;1.00
46438;DHT22;32137;48.728;9.142;2023-07-28T11:13:05;22.30;67.40
46438;DHT22;32137;48.728;9.142;2023-07-28T11:15:31;22.30;59.30
46438;DHT22;32137;48.728;9.142;2023-07-28T11:17:57;22.40;58.00
46438;DHT22;32137;48.728;9.142;2023-07-28T11:20:26;22.30;1.00
46438;DHT22;32137;48.728;9.142;2023-07-28T11:22:54;22.40;20.60
46438;DHT22;32137;48.728;9.142;2023-07-28T11:25:20;22.40;38.70
46438;DHT22;32137;48.728;9.142;2023-07-28T11:27:47;22.40;14.50
46438;DHT22;32137;48.728;9.142;2023-07-28T11:30:13;22.40;1.00
46438;DHT22;32137;48.728;9.142;2023-07-28T11:32:39;22.60;4.10
46438;DHT22;32137;48.728;9.142;2023-07-28T11:35:08;22.70;1.00
46438;DHT22;32137;48.728;9.142;2023-07-28T11:37:37;22.70;1.00
46438;DHT22;32137;48.728;9.142;2023-07-28T11:40:04;22.70;1.00
46438;DHT22;32137;48.728;9.142;2023-07-28T11:42:39;22.60;1.00
46438;DHT22;32137;48.728;9.142;2023-07-28T11:45:05;22.60;1.00
46438;DHT22;32137;48.728;9.142;2023-07-28T11:47:31;22.40;1.00
46438;DHT22;32137;48.728;9.142;2023-07-28T11:49:56;22.20;1.00
46438;DHT22;32137;48.728;9.142;2023-07-28T11:52:24;22.10;99.90
46438;DHT22;32137;48.728;9.142;2023-07-28T11:54:51;21.90;1.00
46438;DHT22;32137;48.728;9.142;2023-07-28T11:57:16;21.70;1.00
46438;DHT22;32137;48.728;9.142;2023-07-28T11:59:42;21.50;1.00
46438;DHT22;32137;48.728;9.142;2023-07-28T12:02:09;21.30;99.90
46438;DHT22;32137;48.728;9.142;2023-07-28T12:04:35;20.50;1.00
46438;DHT22;32137;48.728;9.142;2023-07-28T12:07:12;20.00;1.00
46438;DHT22;32137;48.728;9.142;2023-07-28T12:12:14;19.50;1.00
46438;DHT22;32137;48.728;9.142;2023-07-28T12:14:40;19.20;1.00
46438;DHT22;32137;48.728;9.142;2023-07-28T12:17:15;19.20;1.00
46438;DHT22;32137;48.728;9.142;2023-07-28T12:19:41;19.30;92.80
46438;DHT22;32137;48.728;9.142;2023-07-28T12:22:08;19.40;59.20
46438;DHT22;32137;48.728;9.142;2023-07-28T12:24:34;19.60;1.00
46438;DHT22;32137;48.728;9.142;2023-07-28T12:26:59;19.70;99.90
46438;DHT22;32137;48.728;9.142;2023-07-28T12:29:25;19.90;15.10
46438;DHT22;32137;48.728;9.142;2023-07-28T12:31:50;20.00;1.00
46438;DHT22;32137;48.728;9.142;2023-07-28T12:34:15;20.10;48.60
46438;DHT22;32137;48.728;9.142;2023-07-28T12:36:41;20.30;1.00
46438;DHT22;32137;48.728;9.142;2023-07-28T12:39:07;20.50;99.90
46438;DHT22;32137;48.728;9.142;2023-07-28T12:41:33;20.80;99.90
46438;DHT22;32137;48.728;9.142;2023-07-28T12:43:58;21.10;99.90
46438;DHT22;32137;48.728;9.142;2023-07-28T12:46:23;21.30;94.80
46438;DHT22;32137;48.728;9.142;2023-07-28T12:48:49;21.40;99.90
46438;DHT22;32137;48.728;9.142;2023-07-28T12:51:14;21.40;94.40
46438;DHT22;32137;48.728;9.142;2023-07-28T12:53:40;21.30;17.10
46438;DHT22;32137;48.728;9.142;2023-07-28T12:56:05;21.30;1.00
46438;DHT22;32137;48.728;9.142;2023-07-28T12:58:31;21.20;1.00
46438;DHT22;32137;48.728;9.142;2023-07-28T13:00:58;21.20;18.90
46438;DHT22;32137;48.728;9.142;2023-07-28T13:03:26;21.20;49.20
46438;DHT22;32137;48.728;9.142;2023-07-28T13:05:52;21.20;1.00
46438;DHT22;32137;48.728;9.142;2023-07-28T13:08:17;21.20;1.00
46438;DHT22;32137;48.728;9.142;2023-07-28T13:10:43;21.20;1.00
46438;DHT22;32137;48.728;9.142;2023-07-28T13:13:08;21.20;1.00
46438;DHT22;32137;48.728;9.142;2023-07-28T13:15:34;21.30;1.00
46438;DHT22;32137;48.728;9.142;2023-07-28T13:17:59;21.20;13.70
46438;DHT22;32137;48.728;9.142;2023-07-28T13:20:25;21.20;21.70
46438;DHT22;32137;48.728;9.142;2023-07-28T13:22:50;21.20;45.30
46438;DHT22;32137;48.728;9.142;2023-07-28T13:25:16;21.30;84.20
46438;DHT22;32137;48.728;9.142;2023-07-28T13:27:41;21.20;99.90
46438;DHT22;32137;48.728;9.142;2023-07-28T13:30:07;21.10;99.90
46438;DHT22;32137;48.728;9.142;2023-07-28T13:32:32;21.00;99.90
46438;DHT22;32137;48.728;9.142;2023-07-28T13:34:58;20.80;99.90
46438;DHT22;32137;48.728;9.142;2023-07-28T13:37:23;20.70;99.90
46438;DHT22;32137;48.728;9.142;2023-07-28T13:39:49;20.60;99.90
46438;DHT22;32137;48.728;9.142;2023-07-28T13:42:14;20.40;99.90
46438;DHT22;32137;48.728;9.142;2023-07-28T13:44:41;20.40;99.90
46438;DHT22;32137;48.728;9.142;2023-07-28T13:47:06;20.30;1.00
46438;DHT22;32137;48.728;9.142;2023-07-28T13:49:32;20.20;1.00
46438;DHT22;32137;48.728;9.142;2023-07-28T13:52:01;20.10;34.60
46438;DHT22;32137;48.728;9.142;2023-07-28T13:54:26;20.00;42.00
46438;DHT22;32137;48.728;9.142;2023-07-28T13:56:52;19.90;99.90
46438;DHT22;32137;48.728;9.142;2023-07-28T13:59:17;19.80;99.90
46438;DHT22;32137;48.728;9.142;2023-07-28T14:01:43;19.70;99.90
46438;DHT22;32137;48.728;9.142;2023-07-28T14:04:08;19.60;99.90
46438;DHT22;32137;48.728;9.142;2023-07-28T14:06:34;19.50;99.90
46438;DHT22;32137;48.728;9.142;2023-07-28T14:08:59;19.50;99.90
46438;DHT22;32137;48.728;9.142;2023-07-28T14:11:25;19.40;99.90
46438;DHT22;32137;48.728;9.142;2023-07-28T14:13:51;19.40;99.90
46438;DHT22;32137;48.728;9.142;2023-07-28T14:16:17;19.30;99.90
46438;DHT22;32137;48.728;9.142;2023-07-28T14:18:49;19.30;99.90
46438;DHT22;32137;48.728;9.142;2023-07-28T14:21:15;19.30;25.30
46438;DHT22;32137;48.728;9.142;2023-07-28T14:23:41;19.30;1.00
46438;DHT22;32137;48.728;9.142;2023-07-28T14:26:06;19.30;1.00
46438;DHT22;32137;48.728;9.142;2023-07-28T14:28:32;19.30;1.00
46438;DHT22;32137;48.728;9.142;2023-07-28T14:30:57;19.20;1.00
46438;DHT22;32137;48.728;9.142;2023-07-28T14:33:23;19.10;1.00
46438;DHT22;32137;48.728;9.142;2023-07-28T14:35:49;19.10;25.50
46438;DHT22;32137;48.728;9.142;2023-07-28T14:38:14;19.00;20.30
46438;DHT22;32137;48.728;9.142;2023-07-28T14:40:40;19.00;65.40
46438;DHT22;32137;48.728;9.142;2023-07-28T14:43:06;19.10;99.90
46438;DHT22;32137;48.728;9.142;2023-07-28T14:45:32;19.00;99.90
46438;DHT22;32137;48.728;9.142;2023-07-28T14:47:57;19.00;99.90
46438;DHT22;32137;48.728;9.142;2023-07-28T14:50:23;19.10;99.90
46438;DHT22;32137;48.728;9.142;2023-07-28T14:52:48;19.10;99.90
46438;DHT22;32137;48.728;9.142;2023-07-28T14:55:14;19.10;98.70
46438;DHT22;32137;48.728;9.142;2023-07-28T14:57:39;19.10;99.90
46438;DHT22;32137;48.728;9.142;2023-07-28T15:00:05;19.20;99.90
46438;DHT22;32137;48.728;9.142;2023-07-28T15:02:32;19.30;99.90
46438;DHT22;32137;48.728;9.142;2023-07-28T15:04:58;19.30;98.80
46438;DHT22;32137;48.728;9.142;2023-07-28T15:07:23;19.30;99.90
46438;DHT22;32137;48.728;9.142;2023-07-28T15:09:48;19.50;96.10
46438;DHT22;32137;48.728;9.142;2023-07-28T15:12:14;19.60;92.60
46438;DHT22;32137;48.728;9.142;2023-07-28T15:14:39;19.80;40.20
46438;DHT22;32137;48.728;9.142;2023-07-28T15:17:05;19.90;1.00
46438;DHT22;32137;48.728;9.142;2023-07-28T15:19:30;20.00;1.00
46438;DHT22;32137;48.728;9.142;2023-07-28T15:21:56;20.10;99.90
46438;DHT22;32137;48.728;9.142;2023-07-28T15:24:22;20.20;99.90
46438;DHT22;32137;48.728;9.142;2023-07-28T15:26:47;20.20;99.90
46438;DHT22;32137;48.728;9.142;2023-07-28T15:29:15;20.10;99.90
46438;DHT22;32137;48.728;9.142;2023-07-28T15:31:40;20.10;99.90